首页
METAR-TAF:

METAR-TAF

机场 :

North Myrtle Beach, 南卡罗来纳州, 美国

纬度: 33-48-42N, 经度: 078-43-26W, 海拔: 10米

当前天气观测

该预报发布于53分钟前的08:53 UTC
风速9节,风向北转东北,有时为17节阵风
温度 9°C
湿度 93%
气压 1020 hPa
能見度: 14.5公里
多云层高于500英尺
阴天层高于1600英尺
小雨

METAR: KCRE 150853Z AUTO 02009G17KT 9SM -RA BKN005 OVC016 09/08 A3013 RMK AO1 SLP203 P0011 60022 T00890078 56009

时间: 04:46 (09:46 UTC)

预报

该预报发布于1小时和45分钟前的08:01 UTC
预报有效从15日的 08点(UTC)到 16日的 06点(UTC)
风速12节,风向北转东北
能見度: 8.0公里
阴天层高于400英尺
小雨, 轻雾
从 15日的 2000点(UTC)
风速15节,风向北转东北,有时为23节阵风
能見度: 4.8公里
阴天层高于400英尺
小雨, 轻雾

TAF: KCRE 150801Z 1508/1606 02012KT 5SM -RA BR OVC004 FM152000 02015G23KT 3SM -RA BR OVC004

超过4000个机场的气象观测和天气预报(METAR&TAF报告)。

可查询的气象台以黄色和红色小点在地图上表示。

将鼠标移到小点上方,可查看气象台名称。

然后点击查看天气观测和预报。

如需切换地图:点击带黑十字的绿色按钮放大地图;点击带横线的绿色按钮缩小地图;或者点击绿色箭头查看邻近地区的地图。


METAR-TAF: